createdAt,value
2017-12-06T00:00:05.212Z,73.9
2017-12-06T00:15:05.294Z,73.1
2017-12-06T00:30:05.092Z,73.4
2017-12-06T00:45:05.164Z,73.6
2017-12-06T01:00:06.328Z,73.9
2017-12-06T01:15:05.761Z,73.3
2017-12-06T01:30:10.804Z,74.6
2017-12-06T01:45:09.745Z,74.7
2017-12-06T02:00:04.726Z,74.4
2017-12-06T02:15:05.472Z,74.3
2017-12-06T02:30:05.762Z,74.7
2017-12-06T02:45:05.397Z,74.7
2017-12-06T03:00:05.918Z,73.9
2017-12-06T03:15:11.110Z,74.8
2017-12-06T03:30:05.215Z,74.4
2017-12-06T03:45:06.399Z,74.9
2017-12-06T04:00:04.938Z,74.8
2017-12-06T04:15:05.648Z,74.1
2017-12-06T04:30:04.837Z,74.1
2017-12-06T04:45:05.866Z,73.7
2017-12-06T05:00:04.425Z,73.9
2017-12-06T05:15:04.423Z,74.1
2017-12-06T05:30:06.449Z,73.8
2017-12-06T05:45:04.986Z,74.2
2017-12-06T06:00:04.895Z,73.3
2017-12-06T06:15:07.925Z,73.7
2017-12-06T06:30:36.544Z,73.3
2017-12-06T06:45:04.430Z,73.6
2017-12-06T07:00:04.888Z,73.5
2017-12-06T07:15:04.262Z,73.7
2017-12-06T07:30:04.424Z,73
2017-12-06T07:45:04.301Z,73
2017-12-06T08:00:04.698Z,72.9
2017-12-06T08:15:11.793Z,73.6
2017-12-06T08:30:05.045Z,73.5
2017-12-06T08:45:10.616Z,72.1
2017-12-06T09:00:05.530Z,71.7
2017-12-06T09:15:07.546Z,71.7
2017-12-06T09:30:06.172Z,71.2
2017-12-06T09:45:06.082Z,70.9
2017-12-06T10:00:04.971Z,71.1
2017-12-06T10:15:04.329Z,71.2
2017-12-06T10:30:05.019Z,71.8
2017-12-06T10:45:04.496Z,70.5
2017-12-06T11:00:04.903Z,70.1
2017-12-06T11:15:05.305Z,70.5
2017-12-06T11:30:11.090Z,69.6
2017-12-06T11:45:08.129Z,70.2
2017-12-06T12:00:04.681Z,69.5
2017-12-06T12:15:07.774Z,68.3
2017-12-06T12:30:12.091Z,68.7
2017-12-06T12:45:04.984Z,68.4
2017-12-06T13:00:05.443Z,67.6
2017-12-06T13:15:04.916Z,66.9
2017-12-06T13:30:08.069Z,67.6
2017-12-06T13:45:04.436Z,68
2017-12-06T14:00:04.355Z,67.7
2017-12-06T14:15:04.847Z,67.8
2017-12-06T14:30:04.488Z,67.5
2017-12-06T14:45:04.410Z,67.2
2017-12-06T15:00:09.324Z,67.8
2017-12-06T15:15:05.183Z,67
2017-12-06T15:30:04.819Z,67.9
2017-12-06T15:45:04.696Z,66.8
2017-12-06T16:00:05.626Z,67.4
2017-12-06T16:15:04.566Z,67.6
2017-12-06T16:30:06.258Z,68
2017-12-06T16:45:05.761Z,68
2017-12-06T17:00:08.264Z,68
2017-12-06T17:15:04.666Z,68.4
2017-12-06T17:30:04.400Z,67.4
2017-12-06T17:45:07.672Z,68.9
2017-12-06T18:00:05.374Z,69.1
2017-12-06T18:15:06.082Z,68.2
2017-12-06T18:30:05.891Z,68.5
2017-12-06T19:00:07.933Z,68.8
2017-12-06T19:15:20.325Z,68.5
2017-12-06T19:30:05.649Z,68.7
2017-12-06T19:45:07.468Z,69.7
2017-12-06T20:00:07.403Z,68.8
2017-12-06T20:15:05.436Z,68.8
2017-12-06T20:30:05.675Z,68.2
2017-12-06T20:45:06.063Z,69.1
2017-12-06T21:00:05.200Z,68.8
2017-12-06T21:15:15.714Z,70.2
2017-12-06T21:30:12.639Z,70.5
2017-12-06T21:45:05.775Z,69.6
2017-12-06T22:00:05.688Z,69.1
2017-12-06T22:15:05.506Z,69.5
2017-12-06T22:30:04.950Z,70.6
2017-12-06T22:45:04.567Z,69.8
2017-12-06T23:00:04.895Z,69.8
2017-12-06T23:15:04.960Z,69.3
2017-12-06T23:30:12.110Z,69.6
2017-12-06T23:45:04.483Z,69.9
